Main page
METAR-TAF:

METAR-TAF

Airports :

Isle of Man Airport

Isle of Man,

latitude: 54-05N, longitude: 004-38W, elevation: 17 m

Current weather observation

The report was made 18 minutes ago, at 06:50 UTC
Wind 11 kt from the West
Temperature 6°C
Humidity 81%
Pressure 1021 hPa
Visibility 10 km or more
Few clouds at a height of 2000 ft

METAR: EGNS 170650Z 28011KT 9999 FEW020 06/03 Q1021

Time: 07:08 (07:08 UTC)

Forecast

The report was made 2 hours and 8 minutes ago, at 05:00 UTC
Forecast valid from 17 at 06 UTC to 17 at 09 UTC
Wind 16 kt from the West/Northwest
Visibility 10 km or more
Scattered clouds at a height of 2000 ft

TAF: EGNS 170500Z 1706/1709 29016KT 9999 SCT020

Weather observations and forecasts of more than 4000 airports (METAR and TAF reports).

The available stations are represented by yellow and red dots on the map.

Hover mouse over dot to see the name of the station.

Then click to see weather observations and forecasts.

To change the map : click on the green buttons with a black cross to zoom in, on the green button with a dash to zoom out, or on the green arrows for adjacent maps.


METAR-TAF: